Time;durP1;ratioP1;P1;durP2;ratioP2;P2;SDS_P1;SDS_P2;PMS_P1;PMS_P2;Temp;Humidity;BMP_temperature;BMP_pressure;BME280_temperature;BME280_humidity;BME280_pressure;Samples;Min_cycle;Max_cycle;Signal;HPM_P1;HPM_P2
2021/08/28 00:00:37;;;;;;;;;;;24.50;56.90;;;;;;4992922;28;20005;-63
2021/08/28 00:03:04;;;;;;;;;;;24.50;56.90;;;;;;4975076;28;20344;-63
2021/08/28 00:05:31;;;;;;;;;;;24.50;56.90;;;;;;4992948;28;19983;-63
2021/08/28 00:07:59;;;;;;;;;;;24.50;56.90;;;;;;4991884;28;20381;-62
2021/08/28 00:10:26;;;;;;;;;;;24.50;56.90;;;;;;4992208;28;19929;-63
2021/08/28 00:12:53;;;;;;;;;;;24.50;56.90;;;;;;4990597;28;19926;-62
2021/08/28 00:15:19;;;;;;;;;;;24.50;56.90;;;;;;4991850;28;19932;-62
2021/08/28 00:17:46;;;;;;;;;;;24.50;56.90;;;;;;4991941;28;20347;-62
2021/08/28 00:20:15;;;;;;;;;;;24.50;56.90;;;;;;4992801;28;20012;-63
2021/08/28 00:22:43;;;;;;;;;;;24.50;56.90;;;;;;4992812;28;19955;-62
2021/08/28 00:25:10;;;;;;;;;;;24.50;56.90;;;;;;4992495;28;19983;-62
2021/08/28 00:27:37;;;;;;;;;;;24.50;56.90;;;;;;4974217;28;19933;-62
2021/08/28 00:30:05;;;;;;;;;;;24.50;57.00;;;;;;4975031;28;19930;-62
2021/08/28 00:32:32;;;;;;;;;;;24.50;57.00;;;;;;4991937;28;19955;-62
2021/08/28 00:34:59;;;;;;;;;;;24.50;57.00;;;;;;4991276;28;19926;-63
2021/08/28 00:37:26;;;;;;;;;;;24.50;57.00;;;;;;4991589;28;19926;-62
2021/08/28 00:39:53;;;;;;;;;;;24.50;57.00;;;;;;4974125;28;19976;-63
2021/08/28 00:42:20;;;;;;;;;;;24.50;57.00;;;;;;4992546;28;19965;-63
2021/08/28 00:44:47;;;;;;;;;;;24.50;57.00;;;;;;4991302;28;20092;-62
2021/08/28 00:47:17;;;;;;;;;;;24.50;57.00;;;;;;4991061;28;19925;-63
2021/08/28 00:49:49;;;;;;;;;;;24.50;57.00;;;;;;4991507;28;20297;-62
2021/08/28 00:52:16;;;;;;;;;;;24.50;57.00;;;;;;4991277;28;19972;-62
2021/08/28 00:54:43;;;;;;;;;;;24.50;57.00;;;;;;4991906;28;19934;-62
2021/08/28 00:57:10;;;;;;;;;;;24.50;57.00;;;;;;4973535;28;20033;-62
2021/08/28 00:59:39;;;;;;;;;;;24.50;57.60;;;;;;4992260;28;20016;-62
2021/08/28 01:02:06;;;;;;;;;;;24.40;57.00;;;;;;4974166;28;19927;-63
2021/08/28 01:04:40;;;;;;;;;;;24.50;57.00;;;;;;4992250;28;19975;-62
2021/08/28 01:07:27;;;;;;;;;;;24.40;57.00;;;;;;4991385;28;20442;-63
2021/08/28 01:09:55;;;;;;;;;;;24.50;57.10;;;;;;4974099;28;19926;-62
2021/08/28 01:12:23;;;;;;;;;;;24.50;57.10;;;;;;4975217;28;19973;-62
2021/08/28 01:14:54;;;;;;;;;;;24.50;57.10;;;;;;4991544;28;19926;-62
2021/08/28 01:17:22;;;;;;;;;;;24.50;57.10;;;;;;4991362;28;19926;-63
2021/08/28 01:19:49;;;;;;;;;;;24.50;57.10;;;;;;4992156;28;19926;-62
2021/08/28 01:22:17;;;;;;;;;;;24.50;57.10;;;;;;4992087;28;20012;-63
2021/08/28 01:24:45;;;;;;;;;;;24.50;57.10;;;;;;4989976;28;19952;-63
2021/08/28 01:27:31;;;;;;;;;;;24.50;57.10;;;;;;4991430;28;20382;-63
2021/08/28 01:29:58;;;;;;;;;;;24.40;57.00;;;;;;4993971;28;19933;-62
2021/08/28 01:32:25;;;;;;;;;;;24.50;57.10;;;;;;4991823;28;19975;-62
2021/08/28 01:34:54;;;;;;;;;;;24.40;57.00;;;;;;4991709;28;20274;-62
2021/08/28 01:37:21;;;;;;;;;;;24.40;57.00;;;;;;4991820;28;19972;-62
2021/08/28 01:39:48;;;;;;;;;;;24.50;57.20;;;;;;4991171;28;20270;-62
2021/08/28 01:42:15;;;;;;;;;;;24.40;57.10;;;;;;4991038;28;19973;-63
2021/08/28 01:44:46;;;;;;;;;;;24.40;57.00;;;;;;4990267;28;20366;-62
2021/08/28 01:47:14;;;;;;;;;;;24.50;57.20;;;;;;4990521;28;19926;-62
2021/08/28 01:49:42;;;;;;;;;;;24.40;57.10;;;;;;4990351;28;20017;-62
2021/08/28 01:52:09;;;;;;;;;;;24.40;57.10;;;;;;4974446;28;20013;-62
2021/08/28 01:54:36;;;;;;;;;;;24.40;57.10;;;;;;4989948;28;19925;-62
2021/08/28 01:57:03;;;;;;;;;;;24.40;57.10;;;;;;4990951;28;20472;-62
2021/08/28 01:59:30;;;;;;;;;;;24.40;57.10;;;;;;4991073;28;20351;-62
2021/08/28 02:01:57;;;;;;;;;;;24.40;57.10;;;;;;4974188;28;19933;-62
2021/08/28 02:04:25;;;;;;;;;;;24.40;57.20;;;;;;4991366;28;20337;-62
2021/08/28 02:06:52;;;;;;;;;;;24.40;57.10;;;;;;4990308;28;19926;-62
2021/08/28 02:09:40;;;;;;;;;;;24.40;57.20;;;;;;4990367;28;19935;-63
2021/08/28 02:12:11;;;;;;;;;;;24.40;57.10;;;;;;4991003;28;19988;-63
2021/08/28 02:14:43;;;;;;;;;;;24.40;57.20;;;;;;4991126;28;20013;-62
2021/08/28 02:17:12;;;;;;;;;;;24.40;57.10;;;;;;4990163;28;19995;-61
2021/08/28 02:19:41;;;;;;;;;;;24.40;57.20;;;;;;4991216;28;19955;-62
2021/08/28 02:22:16;;;;;;;;;;;24.40;57.20;;;;;;4990677;28;20389;-62
2021/08/28 02:24:44;;;;;;;;;;;24.40;57.20;;;;;;4990371;28;20020;-62
2021/08/28 02:27:21;;;;;;;;;;;24.40;57.20;;;;;;4989451;28;19926;-62
2021/08/28 02:30:09;;;;;;;;;;;24.40;57.20;;;;;;4989899;28;20304;-62
2021/08/28 02:32:37;;;;;;;;;;;24.40;57.20;;;;;;4990620;28;20427;-62
2021/08/28 02:35:05;;;;;;;;;;;24.40;57.20;;;;;;4990946;28;20024;-62
2021/08/28 02:37:33;;;;;;;;;;;24.40;57.20;;;;;;4990982;28;19925;-62
2021/08/28 02:40:01;;;;;;;;;;;24.40;57.30;;;;;;4989499;28;19975;-63
2021/08/28 02:42:28;;;;;;;;;;;24.40;57.20;;;;;;4990820;28;20012;-62
2021/08/28 02:44:56;;;;;;;;;;;24.40;57.20;;;;;;4989750;28;19929;-62
2021/08/28 02:47:24;;;;;;;;;;;24.40;57.30;;;;;;4990420;28;19958;-62
2021/08/28 02:49:52;;;;;;;;;;;24.40;57.30;;;;;;4973322;28;20012;-62
2021/08/28 02:52:20;;;;;;;;;;;24.40;57.30;;;;;;4989322;28;19975;-62
2021/08/28 02:54:47;;;;;;;;;;;24.40;57.30;;;;;;4990648;28;20339;-63
2021/08/28 02:57:14;;;;;;;;;;;24.40;57.30;;;;;;4990218;28;20390;-63
2021/08/28 02:59:41;;;;;;;;;;;24.40;57.30;;;;;;4990208;28;20024;-62
2021/08/28 03:02:08;;;;;;;;;;;24.40;57.30;;;;;;4973356;28;20017;-62
2021/08/28 03:04:37;;;;;;;;;;;24.40;57.40;;;;;;4989489;28;19926;-62
2021/08/28 03:07:05;;;;;;;;;;;24.40;57.40;;;;;;4990163;28;19961;-62
2021/08/28 03:09:33;;;;;;;;;;;24.40;57.30;;;;;;4989295;28;19926;-62
2021/08/28 03:12:00;;;;;;;;;;;24.40;57.40;;;;;;4989417;28;20360;-63
2021/08/28 03:14:26;;;;;;;;;;;24.40;57.30;;;;;;4990189;28;20010;-62
2021/08/28 03:16:54;;;;;;;;;;;24.40;57.30;;;;;;4990304;28;19930;-62
2021/08/28 03:19:22;;;;;;;;;;;24.40;57.40;;;;;;4989489;28;20002;-62
2021/08/28 03:21:50;;;;;;;;;;;24.40;57.30;;;;;;4990388;28;19968;-63
2021/08/28 03:24:19;;;;;;;;;;;24.40;57.30;;;;;;4988875;28;19926;-62
2021/08/28 03:26:47;;;;;;;;;;;24.40;57.30;;;;;;4990021;28;20017;-62
2021/08/28 03:29:14;;;;;;;;;;;24.40;57.30;;;;;;4989203;28;19969;-64
2021/08/28 03:31:41;;;;;;;;;;;24.40;57.30;;;;;;4990197;28;19960;-62
2021/08/28 03:34:08;;;;;;;;;;;24.40;57.30;;;;;;4989130;28;20036;-62
2021/08/28 03:36:36;;;;;;;;;;;24.40;57.30;;;;;;4990190;28;19930;-62
2021/08/28 03:39:04;;;;;;;;;;;24.40;57.40;;;;;;4989856;28;20024;-62
2021/08/28 03:41:31;;;;;;;;;;;24.30;57.20;;;;;;4988826;28;20273;-62
2021/08/28 03:43:58;;;;;;;;;;;24.40;57.30;;;;;;4989743;28;20449;-62
2021/08/28 03:46:26;;;;;;;;;;;24.40;57.30;;;;;;4971807;28;20351;-62
2021/08/28 03:48:53;;;;;;;;;;;24.40;57.30;;;;;;4989032;28;20013;-62
2021/08/28 03:51:20;;;;;;;;;;;24.40;57.30;;;;;;5004863;28;20005;-62
2021/08/28 03:53:46;;;;;;;;;;;24.40;57.30;;;;;;4989016;28;20364;-63
2021/08/28 03:56:13;;;;;;;;;;;24.40;57.30;;;;;;4988631;28;19926;-63
2021/08/28 03:58:40;;;;;;;;;;;24.40;57.30;;;;;;4988462;28;20437;-62
2021/08/28 04:01:07;;;;;;;;;;;24.40;57.30;;;;;;4989748;28;20289;-62
2021/08/28 04:03:34;;;;;;;;;;;24.40;57.30;;;;;;4990379;28;19930;-62
2021/08/28 04:06:02;;;;;;;;;;;24.40;57.30;;;;;;4992884;28;19925;-62
2021/08/28 04:08:28;;;;;;;;;;;24.40;57.30;;;;;;4991793;28;20369;-62
2021/08/28 04:10:56;;;;;;;;;;;24.40;57.30;;;;;;4993164;28;19995;-62
2021/08/28 04:13:22;;;;;;;;;;;24.40;57.30;;;;;;4993127;28;20331;-62
2021/08/28 04:15:50;;;;;;;;;;;24.40;57.30;;;;;;4991553;28;19926;-62
2021/08/28 04:18:18;;;;;;;;;;;24.30;57.20;;;;;;4992900;28;19925;-62
2021/08/28 04:20:44;;;;;;;;;;;24.40;57.30;;;;;;4974441;28;19968;-62
2021/08/28 04:23:11;;;;;;;;;;;24.40;57.30;;;;;;4975738;28;20334;-62
2021/08/28 04:25:38;;;;;;;;;;;24.40;57.30;;;;;;4992643;28;19961;-62
2021/08/28 04:28:05;;;;;;;;;;;24.40;57.30;;;;;;4991523;28;19936;-62
2021/08/28 04:30:32;;;;;;;;;;;24.40;57.40;;;;;;4991505;28;20288;-62
2021/08/28 04:32:59;;;;;;;;;;;24.40;57.30;;;;;;4992750;28;19964;-62
2021/08/28 04:35:26;;;;;;;;;;;24.40;57.30;;;;;;4992411;28;19962;-62
2021/08/28 04:37:53;;;;;;;;;;;24.40;57.30;;;;;;4991232;28;19934;-62
2021/08/28 04:40:20;;;;;;;;;;;24.40;57.30;;;;;;4991559;28;20349;-62
2021/08/28 04:42:47;;;;;;;;;;;24.40;57.30;;;;;;4992746;28;19926;-62
2021/08/28 04:45:14;;;;;;;;;;;24.40;57.30;;;;;;4991463;28;20443;-63
2021/08/28 04:47:41;;;;;;;;;;;24.40;57.30;;;;;;4991445;28;19972;-62
2021/08/28 04:50:08;;;;;;;;;;;24.40;57.30;;;;;;4992761;28;19928;-62
2021/08/28 04:52:35;;;;;;;;;;;24.40;57.30;;;;;;4992045;28;19926;-62
2021/08/28 04:55:02;;;;;;;;;;;24.40;57.30;;;;;;4992134;28;20350;-61
2021/08/28 04:57:31;;;;;;;;;;;24.40;57.30;;;;;;4991296;28;21323;-62
2021/08/28 04:59:58;;;;;;;;;;;24.40;57.20;;;;;;4990871;28;20439;-62
2021/08/28 05:02:25;;;;;;;;;;;24.40;57.20;;;;;;4990907;28;19930;-62
2021/08/28 05:04:52;;;;;;;;;;;24.40;57.20;;;;;;4975102;28;19956;-62
2021/08/28 05:07:19;;;;;;;;;;;24.40;57.20;;;;;;4991752;28;19973;-62
2021/08/28 05:09:46;;;;;;;;;;;24.40;57.20;;;;;;4991147;28;19934;-62
2021/08/28 05:12:13;;;;;;;;;;;24.40;57.20;;;;;;4991867;28;20500;-62
2021/08/28 05:14:40;;;;;;;;;;;24.40;57.20;;;;;;4991914;28;19976;-62
2021/08/28 05:17:07;;;;;;;;;;;24.40;57.20;;;;;;4991025;28;20016;-63
2021/08/28 05:19:34;;;;;;;;;;;24.40;57.20;;;;;;4991054;28;19925;-62
2021/08/28 05:22:01;;;;;;;;;;;24.40;57.20;;;;;;4974832;28;19965;-62
2021/08/28 05:24:29;;;;;;;;;;;24.40;57.20;;;;;;4990984;28;19926;-62
2021/08/28 05:26:56;;;;;;;;;;;24.40;57.20;;;;;;4990431;28;19934;-62
2021/08/28 05:29:23;;;;;;;;;;;24.40;57.20;;;;;;4990286;28;20377;-62
2021/08/28 05:31:49;;;;;;;;;;;24.40;57.20;;;;;;4990500;28;19927;-62
2021/08/28 05:34:16;;;;;;;;;;;24.40;57.20;;;;;;4991632;28;19956;-62
2021/08/28 05:36:43;;;;;;;;;;;24.40;57.20;;;;;;4974903;28;19926;-63
2021/08/28 05:39:10;;;;;;;;;;;24.40;57.20;;;;;;4991407;28;20401;-63
2021/08/28 05:41:37;;;;;;;;;;;24.40;57.20;;;;;;4991295;28;20008;-62
2021/08/28 05:44:04;;;;;;;;;;;24.40;57.20;;;;;;4990568;28;20012;-62
2021/08/28 05:46:31;;;;;;;;;;;24.40;57.20;;;;;;4990374;28;19965;-62
2021/08/28 05:48:58;;;;;;;;;;;24.40;57.10;;;;;;4974338;28;19926;-62
2021/08/28 05:51:25;;;;;;;;;;;24.50;57.20;;;;;;4991255;28;19991;-62
2021/08/28 05:53:52;;;;;;;;;;;24.50;57.20;;;;;;4990044;28;19975;-62
2021/08/28 05:56:19;;;;;;;;;;;24.50;57.10;;;;;;4974040;28;19973;-63
2021/08/28 05:58:46;;;;;;;;;;;24.50;57.10;;;;;;4989799;28;20278;-62
2021/08/28 06:01:13;;;;;;;;;;;24.50;57.00;;;;;;4990275;28;20332;-62
2021/08/28 06:03:40;;;;;;;;;;;24.50;57.00;;;;;;4991499;28;20036;-62
2021/08/28 06:06:07;;;;;;;;;;;24.50;57.00;;;;;;4991083;28;20014;-62
2021/08/28 06:08:35;;;;;;;;;;;24.50;57.00;;;;;;4990292;28;20278;-62
2021/08/28 06:11:02;;;;;;;;;;;24.50;57.00;;;;;;4976883;28;20461;-62
2021/08/28 06:13:28;;;;;;;;;;;24.60;57.00;;;;;;4990923;28;19926;-62
2021/08/28 06:15:55;;;;;;;;;;;24.60;57.00;;;;;;4973845;28;19926;-62
2021/08/28 06:18:22;;;;;;;;;;;24.60;56.90;;;;;;4989826;28;19949;-62
2021/08/28 06:20:52;;;;;;;;;;;24.60;56.90;;;;;;4974227;28;20374;-62
2021/08/28 06:23:19;;;;;;;;;;;24.60;56.80;;;;;;4991065;28;20290;-62
2021/08/28 06:25:45;;;;;;;;;;;24.60;56.80;;;;;;4989459;28;20423;-62
2021/08/28 06:28:12;;;;;;;;;;;24.60;56.70;;;;;;4990113;28;19926;-62
2021/08/28 06:30:39;;;;;;;;;;;24.70;56.80;;;;;;4972823;28;19934;-62
2021/08/28 06:33:06;;;;;;;;;;;24.60;56.60;;;;;;4990608;28;20029;-62
2021/08/28 06:35:33;;;;;;;;;;;24.70;56.70;;;;;;4990887;28;20017;-62
2021/08/28 06:38:00;;;;;;;;;;;24.70;56.60;;;;;;4990852;28;20092;-62
2021/08/28 06:40:27;;;;;;;;;;;24.70;56.50;;;;;;4990026;28;20319;-62
2021/08/28 06:42:54;;;;;;;;;;;24.70;56.50;;;;;;4989362;28;19927;-62
2021/08/28 06:45:21;;;;;;;;;;;24.80;56.60;;;;;;4990804;28;19925;-62
2021/08/28 06:47:48;;;;;;;;;;;24.80;56.60;;;;;;4972165;28;19965;-62
2021/08/28 06:50:15;;;;;;;;;;;24.80;56.60;;;;;;4990377;28;19933;-63
2021/08/28 06:52:42;;;;;;;;;;;24.70;57.10;;;;;;4990725;28;20342;-62
2021/08/28 06:55:09;;;;;;;;;;;24.80;56.50;;;;;;4990040;28;19996;-62
2021/08/28 06:57:36;;;;;;;;;;;24.70;56.50;;;;;;4989030;28;19930;-62
2021/08/28 07:00:04;;;;;;;;;;;24.80;56.60;;;;;;4989400;28;19926;-62
2021/08/28 07:02:31;;;;;;;;;;;24.70;56.50;;;;;;4989281;28;19926;-62
2021/08/28 07:04:58;;;;;;;;;;;24.70;56.50;;;;;;4972045;28;19926;-62
2021/08/28 07:07:25;;;;;;;;;;;24.80;56.60;;;;;;4990115;28;19959;-62
2021/08/28 07:09:52;;;;;;;;;;;24.70;56.50;;;;;;4989301;28;19926;-63
2021/08/28 07:12:19;;;;;;;;;;;24.80;56.50;;;;;;4989333;28;19961;-62
2021/08/28 07:14:46;;;;;;;;;;;24.80;56.50;;;;;;4972177;28;20359;-63
2021/08/28 07:17:13;;;;;;;;;;;24.80;56.40;;;;;;4989036;28;19975;-62
2021/08/28 07:19:40;;;;;;;;;;;24.90;56.40;;;;;;4972826;28;19926;-62
2021/08/28 07:22:07;;;;;;;;;;;24.90;56.30;;;;;;4989223;28;19977;-62
2021/08/28 07:24:34;;;;;;;;;;;24.90;56.20;;;;;;4990457;28;20016;-62
2021/08/28 07:27:01;;;;;;;;;;;24.90;56.20;;;;;;4990169;28;19932;-62
2021/08/28 07:29:28;;;;;;;;;;;24.90;56.10;;;;;;4989285;28;19975;-62
2021/08/28 07:31:55;;;;;;;;;;;24.90;56.10;;;;;;4990586;28;19926;-62
2021/08/28 07:34:22;;;;;;;;;;;24.90;56.10;;;;;;4990128;28;20420;-62
2021/08/28 07:36:49;;;;;;;;;;;24.90;56.10;;;;;;4990218;28;20335;-62
2021/08/28 07:39:16;;;;;;;;;;;24.90;56.10;;;;;;4990821;28;20246;-63
2021/08/28 07:41:43;;;;;;;;;;;25.00;56.10;;;;;;4993510;28;19925;-62
2021/08/28 07:44:10;;;;;;;;;;;25.00;56.10;;;;;;4993503;28;19930;-62
2021/08/28 07:46:37;;;;;;;;;;;25.00;56.10;;;;;;4993078;28;19930;-62
2021/08/28 07:49:04;;;;;;;;;;;25.00;56.00;;;;;;4991923;28;19979;-62
2021/08/28 07:51:31;;;;;;;;;;;25.00;55.90;;;;;;4993333;28;19999;-62
2021/08/28 07:53:58;;;;;;;;;;;25.10;55.90;;;;;;4991920;28;19926;-62
2021/08/28 07:56:25;;;;;;;;;;;25.10;55.80;;;;;;4992990;28;20438;-62
2021/08/28 07:58:52;;;;;;;;;;;25.10;55.70;;;;;;4975983;28;19964;-63
2021/08/28 08:01:19;;;;;;;;;;;25.10;55.80;;;;;;4992746;28;20443;-63
2021/08/28 08:03:46;;;;;;;;;;;25.20;55.70;;;;;;4992479;28;19936;-62
2021/08/28 08:06:14;;;;;;;;;;;25.20;55.60;;;;;;4974605;28;19926;-62
2021/08/28 08:08:41;;;;;;;;;;;25.20;55.60;;;;;;4992819;28;20020;-62
2021/08/28 08:11:08;;;;;;;;;;;25.30;56.20;;;;;;4991602;28;19926;-63
2021/08/28 08:13:35;;;;;;;;;;;25.20;55.50;;;;;;4992791;28;19926;-62
2021/08/28 08:16:02;;;;;;;;;;;25.30;55.50;;;;;;4991799;28;19926;-62
2021/08/28 08:18:29;;;;;;;;;;;25.30;55.50;;;;;;4992708;28;19929;-62
2021/08/28 08:20:56;;;;;;;;;;;25.30;55.50;;;;;;4992447;28;19926;-62
2021/08/28 08:23:23;;;;;;;;;;;25.30;55.50;;;;;;4993103;28;19926;-63
2021/08/28 08:25:50;;;;;;;;;;;25.30;55.50;;;;;;4991711;28;19926;-63
2021/08/28 08:28:17;;;;;;;;;;;25.30;55.40;;;;;;4992744;28;20354;-63
2021/08/28 08:30:46;;;;;;;;;;;25.30;55.30;;;;;;4991644;28;19926;-62
2021/08/28 08:33:15;;;;;;;;;;;25.30;55.30;;;;;;4992453;28;19977;-62
2021/08/28 08:35:41;;;;;;;;;;;25.30;55.30;;;;;;4992386;28;19980;-62
2021/08/28 08:38:08;;;;;;;;;;;25.30;55.30;;;;;;4992389;28;20005;-62
2021/08/28 08:40:35;;;;;;;;;;;25.30;55.20;;;;;;4991239;28;19965;-62
2021/08/28 08:43:04;;;;;;;;;;;25.40;55.20;;;;;;4992224;28;19926;-62
2021/08/28 08:45:31;;;;;;;;;;;25.40;55.10;;;;;;4992355;28;19926;-62
2021/08/28 08:47:58;;;;;;;;;;;25.40;55.10;;;;;;4992437;28;19936;-62
2021/08/28 08:50:25;;;;;;;;;;;25.50;55.00;;;;;;4992117;28;19995;-62
2021/08/28 08:52:53;;;;;;;;;;;25.50;54.80;;;;;;4991423;28;19979;-62
2021/08/28 08:55:20;;;;;;;;;;;25.60;54.70;;;;;;4991793;28;19977;-61
2021/08/28 08:58:07;;;;;;;;;;;25.60;54.60;;;;;;4991923;28;19929;-62
2021/08/28 09:00:34;;;;;;;;;;;25.70;54.60;;;;;;4992316;28;19938;-63
2021/08/28 09:03:02;;;;;;;;;;;25.60;54.60;;;;;;4991305;28;19942;-63
2021/08/28 09:05:29;;;;;;;;;;;25.60;54.70;;;;;;4991022;28;19964;-62
2021/08/28 09:07:56;;;;;;;;;;;25.60;54.80;;;;;;4991804;28;20424;-62
2021/08/28 09:10:23;;;;;;;;;;;25.50;54.80;;;;;;4992281;28;20305;-63
2021/08/28 09:12:50;;;;;;;;;;;25.50;54.90;;;;;;4973684;28;19926;-62
2021/08/28 09:15:18;;;;;;;;;;;25.50;55.00;;;;;;4956799;28;20332;-63
2021/08/28 09:17:56;;;;;;;;;;;25.50;55.10;;;;;;4990730;28;19927;-62
2021/08/28 09:20:24;;;;;;;;;;;25.50;55.10;;;;;;4992175;28;20321;-62
2021/08/28 09:23:02;;;;;;;;;;;25.50;55.00;;;;;;4990573;28;19971;-63
2021/08/28 09:25:29;;;;;;;;;;;25.50;55.00;;;;;;4991697;28;19926;-62
2021/08/28 09:27:56;;;;;;;;;;;25.40;55.10;;;;;;4991712;28;19969;-62
2021/08/28 09:30:39;;;;;;;;;;;25.40;55.00;;;;;;4991696;28;19956;-63
2021/08/28 09:33:07;;;;;;;;;;;25.50;55.00;;;;;;4975531;28;19926;-63
2021/08/28 09:35:34;;;;;;;;;;;25.50;55.00;;;;;;4991551;28;20021;-62
2021/08/28 09:38:03;;;;;;;;;;;25.50;54.90;;;;;;4991831;28;20022;-62
2021/08/28 09:40:34;;;;;;;;;;;25.60;54.90;;;;;;4991059;28;19926;-63
2021/08/28 09:43:03;;;;;;;;;;;25.50;54.90;;;;;;4991021;28;20345;-63
2021/08/28 09:45:30;;;;;;;;;;;25.50;54.90;;;;;;4991816;28;19976;-62
2021/08/28 09:47:57;;;;;;;;;;;25.50;55.00;;;;;;4990613;28;19926;-62
2021/08/28 09:50:25;;;;;;;;;;;25.50;54.90;;;;;;4990826;28;19969;-62
2021/08/28 09:52:52;;;;;;;;;;;25.50;54.90;;;;;;4990593;28;19926;-62
2021/08/28 09:55:21;;;;;;;;;;;25.50;54.90;;;;;;4989883;28;19926;-62
2021/08/28 09:57:50;;;;;;;;;;;25.50;54.90;;;;;;4990772;28;20050;-62
2021/08/28 10:00:18;;;;;;;;;;;25.50;54.90;;;;;;4991114;28;19932;-62
2021/08/28 10:02:58;;;;;;;;;;;25.50;54.90;;;;;;4990315;28;19961;-62
2021/08/28 10:05:27;;;;;;;;;;;25.50;54.90;;;;;;4990486;28;19979;-62
2021/08/28 10:07:58;;;;;;;;;;;25.60;54.90;;;;;;4991033;28;19979;-62
2021/08/28 10:10:26;;;;;;;;;;;25.60;55.50;;;;;;4991259;28;19930;-62
2021/08/28 10:12:53;;;;;;;;;;;25.50;54.90;;;;;;4989973;28;19933;-62
2021/08/28 10:15:21;;;;;;;;;;;25.50;54.90;;;;;;4991298;28;20038;-63
2021/08/28 10:17:48;;;;;;;;;;;25.50;54.90;;;;;;4991052;28;19929;-62
2021/08/28 10:20:19;;;;;;;;;;;25.50;54.80;;;;;;4989841;28;19926;-63
2021/08/28 10:22:48;;;;;;;;;;;25.60;54.90;;;;;;4990818;28;19926;-62
2021/08/28 10:25:17;;;;;;;;;;;25.60;54.90;;;;;;4972651;28;19926;-63
2021/08/28 10:27:45;;;;;;;;;;;25.60;54.90;;;;;;4991059;28;19925;-62
2021/08/28 10:30:12;;;;;;;;;;;25.60;54.90;;;;;;4989739;28;19929;-62
2021/08/28 10:32:39;;;;;;;;;;;25.60;54.80;;;;;;4990828;28;19932;-62
2021/08/28 10:35:07;;;;;;;;;;;25.60;54.80;;;;;;4989618;28;19969;-62
2021/08/28 10:37:34;;;;;;;;;;;25.60;54.80;;;;;;4990535;28;19926;-62
2021/08/28 10:40:02;;;;;;;;;;;25.60;54.80;;;;;;4990475;28;19926;-62
2021/08/28 10:42:32;;;;;;;;;;;25.60;54.80;;;;;;4989773;28;19969;-62
2021/08/28 10:45:00;;;;;;;;;;;25.50;54.90;;;;;;4990720;28;19925;-62
2021/08/28 10:47:28;;;;;;;;;;;25.50;54.90;;;;;;4990519;28;19926;-62
2021/08/28 10:49:57;;;;;;;;;;;25.50;54.90;;;;;;4990601;28;19975;-63
2021/08/28 10:52:25;;;;;;;;;;;25.50;55.00;;;;;;4990812;28;19930;-62
2021/08/28 10:54:56;;;;;;;;;;;25.50;55.00;;;;;;4989511;28;19972;-62
2021/08/28 10:57:28;;;;;;;;;;;25.50;55.00;;;;;;4973156;28;20348;-62
2021/08/28 11:00:00;;;;;;;;;;;25.50;55.00;;;;;;4989950;28;19926;-62
2021/08/28 11:03:05;;;;;;;;;;;25.50;55.00;;;;;;4990165;28;19926;-63
2021/08/28 11:05:33;;;;;;;;;;;25.50;55.10;;;;;;5028857;28;19976;-62
2021/08/28 11:08:18;;;;;;;;;;;25.50;55.10;;;;;;5029920;28;19925;-62
2021/08/28 11:11:04;;;;;;;;;;;25.50;55.00;;;;;;5014201;28;19925;-62
2021/08/28 11:13:51;;;;;;;;;;;25.60;55.00;;;;;;5018923;28;20008;-62
2021/08/28 11:16:37;;;;;;;;;;;25.50;55.00;;;;;;5034199;28;20044;-62
2021/08/28 11:19:05;;;;;;;;;;;25.50;55.00;;;;;;5033215;28;19932;-63
2021/08/28 11:21:41;;;;;;;;;;;25.50;55.00;;;;;;5028225;28;19925;-62
2021/08/28 11:24:21;;;;;;;;;;;25.60;55.10;;;;;;5018093;28;20011;-62
2021/08/28 11:26:49;;;;;;;;;;;25.50;55.10;;;;;;5017747;28;19980;-62
2021/08/28 11:29:16;;;;;;;;;;;25.50;55.10;;;;;;5023128;28;20007;-63
2021/08/28 11:31:45;;;;;;;;;;;25.50;55.10;;;;;;5027671;28;19996;-62
2021/08/28 11:34:12;;;;;;;;;;;25.50;55.10;;;;;;5017613;28;20000;-63
2021/08/28 11:36:39;;;;;;;;;;;25.50;55.00;;;;;;4995398;28;20270;-62
2021/08/28 11:39:20;;;;;;;;;;;25.60;55.10;;;;;;4993285;28;19985;-62
2021/08/28 11:41:47;;;;;;;;;;;25.60;55.00;;;;;;4992518;28;20018;-62
2021/08/28 11:44:14;;;;;;;;;;;25.60;55.00;;;;;;4993262;28;19926;-63
2021/08/28 11:46:43;;;;;;;;;;;25.60;55.10;;;;;;4992187;28;20435;-62
2021/08/28 11:49:10;;;;;;;;;;;25.60;55.10;;;;;;4992162;28;19926;-62
2021/08/28 11:51:37;;;;;;;;;;;25.60;55.10;;;;;;4993193;28;19925;-62
2021/08/28 11:54:04;;;;;;;;;;;25.60;55.10;;;;;;4975815;28;19977;-62
2021/08/28 11:56:35;;;;;;;;;;;25.60;55.10;;;;;;4993113;28;20017;-62
2021/08/28 11:59:06;;;;;;;;;;;25.50;55.10;;;;;;4992405;28;19926;-62
2021/08/28 12:01:38;;;;;;;;;;;25.60;55.10;;;;;;4993318;28;19971;-62
2021/08/28 12:04:07;;;;;;;;;;;25.60;55.10;;;;;;4993528;28;19975;-62
2021/08/28 12:06:35;;;;;;;;;;;25.50;55.10;;;;;;4991870;28;19926;-62
2021/08/28 12:09:04;;;;;;;;;;;25.60;55.10;;;;;;4992299;28;19969;-62
2021/08/28 12:11:32;;;;;;;;;;;25.60;55.10;;;;;;4993152;28;19987;-62
2021/08/28 12:14:02;;;;;;;;;;;25.60;55.10;;;;;;4993089;28;19932;-62
2021/08/28 12:16:29;;;;;;;;;;;25.60;55.70;;;;;;4992713;28;20385;-62
2021/08/28 12:18:57;;;;;;;;;;;25.60;55.10;;;;;;4975987;28;19926;-62
2021/08/28 12:21:24;;;;;;;;;;;25.60;55.00;;;;;;4974410;28;19971;-63
2021/08/28 12:23:51;;;;;;;;;;;25.70;55.00;;;;;;4992253;28;20025;-63
2021/08/28 12:26:19;;;;;;;;;;;25.60;55.50;;;;;;4992830;28;19933;-62
2021/08/28 12:28:46;;;;;;;;;;;25.70;55.00;;;;;;4991317;28;20021;-62
2021/08/28 12:31:15;;;;;;;;;;;25.60;54.90;;;;;;4991787;28;19980;-62
2021/08/28 12:33:42;;;;;;;;;;;25.60;54.90;;;;;;4975287;28;19933;-62
2021/08/28 12:36:25;;;;;;;;;;;25.60;55.00;;;;;;4992706;28;20355;-63
2021/08/28 12:39:03;;;;;;;;;;;25.60;55.00;;;;;;4991780;28;19969;-62
2021/08/28 12:41:30;;;;;;;;;;;25.70;55.00;;;;;;4991243;28;20438;-62
2021/08/28 12:43:57;;;;;;;;;;;25.70;54.90;;;;;;4991262;28;20400;-63
2021/08/28 12:46:24;;;;;;;;;;;25.70;54.90;;;;;;4992618;28;20362;-63
2021/08/28 12:49:10;;;;;;;;;;;25.70;54.80;;;;;;4991078;28;20394;-62
2021/08/28 12:51:37;;;;;;;;;;;25.70;54.80;;;;;;4991520;28;19975;-62
2021/08/28 12:54:04;;;;;;;;;;;25.70;54.80;;;;;;4992101;28;19926;-62
2021/08/28 12:56:31;;;;;;;;;;;25.70;54.70;;;;;;4991382;28;19926;-62
2021/08/28 12:58:58;;;;;;;;;;;25.70;54.80;;;;;;4973577;28;19926;-62
2021/08/28 13:01:25;;;;;;;;;;;25.70;54.80;;;;;;4992304;28;19926;-63
2021/08/28 13:03:53;;;;;;;;;;;25.70;54.70;;;;;;4973946;28;19951;-62
2021/08/28 13:06:23;;;;;;;;;;;25.70;54.70;;;;;;4992444;28;20343;-62
2021/08/28 13:08:51;;;;;;;;;;;25.70;54.70;;;;;;4992061;28;19929;-62
2021/08/28 13:11:22;;;;;;;;;;;25.80;54.70;;;;;;4991990;28;19986;-62
2021/08/28 13:14:01;;;;;;;;;;;25.80;54.70;;;;;;4992289;28;20355;-62
2021/08/28 13:16:28;;;;;;;;;;;25.80;54.70;;;;;;4990834;28;19958;-63
2021/08/28 13:19:15;;;;;;;;;;;25.80;54.70;;;;;;4974918;28;20899;-63
2021/08/28 13:21:45;;;;;;;;;;;25.80;54.70;;;;;;4990666;28;19930;-62
2021/08/28 13:24:13;;;;;;;;;;;25.80;54.70;;;;;;4990978;28;19976;-62
2021/08/28 13:26:58;;;;;;;;;;;25.80;54.70;;;;;;4991827;28;19995;-62
2021/08/28 13:29:26;;;;;;;;;;;25.70;54.70;;;;;;4991982;28;19967;-62
2021/08/28 13:32:03;;;;;;;;;;;25.70;54.80;;;;;;4991903;28;20024;-62
2021/08/28 13:34:37;;;;;;;;;;;25.70;54.80;;;;;;4991828;28;19954;-62
2021/08/28 13:37:05;;;;;;;;;;;25.70;54.80;;;;;;4973442;28;19972;-63
2021/08/28 13:39:32;;;;;;;;;;;25.70;55.10;;;;;;4990456;28;19926;-63
2021/08/28 13:41:59;;;;;;;;;;;25.70;54.90;;;;;;4991497;28;19961;-62
2021/08/28 13:44:26;;;;;;;;;;;25.60;54.90;;;;;;4991775;28;20008;-62
2021/08/28 13:46:53;;;;;;;;;;;25.70;55.00;;;;;;4991612;28;20293;-62
2021/08/28 13:49:20;;;;;;;;;;;25.60;55.00;;;;;;4991749;28;20021;-63
2021/08/28 13:51:48;;;;;;;;;;;25.60;55.10;;;;;;4991340;28;20365;-63
2021/08/28 13:54:15;;;;;;;;;;;25.60;55.10;;;;;;4991375;28;19932;-62
2021/08/28 13:56:42;;;;;;;;;;;25.60;55.20;;;;;;4990011;28;19975;-62
2021/08/28 13:59:10;;;;;;;;;;;25.60;55.20;;;;;;4990022;28;19930;-62
2021/08/28 14:01:37;;;;;;;;;;;25.60;55.20;;;;;;4991110;28;19926;-62
2021/08/28 14:04:05;;;;;;;;;;;25.60;55.20;;;;;;4974045;28;19925;-62
2021/08/28 14:06:32;;;;;;;;;;;25.60;55.20;;;;;;4990216;28;20004;-62
2021/08/28 14:08:59;;;;;;;;;;;25.60;55.10;;;;;;4989970;28;19934;-62
2021/08/28 14:11:26;;;;;;;;;;;25.60;55.10;;;;;;4990321;28;19926;-62
2021/08/28 14:13:53;;;;;;;;;;;25.60;55.10;;;;;;4990340;28;20344;-62
2021/08/28 14:16:20;;;;;;;;;;;25.60;55.20;;;;;;4990174;28;19960;-63
2021/08/28 14:18:47;;;;;;;;;;;25.50;55.20;;;;;;4991371;28;19925;-62
2021/08/28 14:21:14;;;;;;;;;;;25.50;55.20;;;;;;4991289;28;19926;-63
2021/08/28 14:23:41;;;;;;;;;;;25.60;55.30;;;;;;4990775;28;19929;-62